sensor_id;sensor_type;location;lat;lon;timestamp;temperature;humidity
9383;DHT22;4731;49.708;10.816;2023-02-11T00:01:06;-3.10;99.90
9383;DHT22;4731;49.708;10.816;2023-02-11T00:03:34;-4.00;99.90
9383;DHT22;4731;49.708;10.816;2023-02-11T00:06:04;-4.10;99.90
9383;DHT22;4731;49.708;10.816;2023-02-11T00:08:33;-4.20;99.90
9383;DHT22;4731;49.708;10.816;2023-02-11T00:11:02;-4.00;99.90
9383;DHT22;4731;49.708;10.816;2023-02-11T00:13:30;-3.90;99.90
9383;DHT22;4731;49.708;10.816;2023-02-11T00:15:57;-4.20;99.90
9383;DHT22;4731;49.708;10.816;2023-02-11T00:18:26;-4.20;99.90
9383;DHT22;4731;49.708;10.816;2023-02-11T00:20:54;-4.10;99.90
9383;DHT22;4731;49.708;10.816;2023-02-11T00:23:21;-1.50;99.90
9383;DHT22;4731;49.708;10.816;2023-02-11T00:25:54;-4.20;99.90
9383;DHT22;4731;49.708;10.816;2023-02-11T00:28:23;-4.40;99.90
9383;DHT22;4731;49.708;10.816;2023-02-11T00:30:53;-1.90;99.90
9383;DHT22;4731;49.708;10.816;2023-02-11T00:33:22;-4.20;99.90
9383;DHT22;4731;49.708;10.816;2023-02-11T00:35:49;-4.10;99.90
9383;DHT22;4731;49.708;10.816;2023-02-11T00:38:17;-4.40;99.90
9383;DHT22;4731;49.708;10.816;2023-02-11T00:40:43;-0.20;99.90
9383;DHT22;4731;49.708;10.816;2023-02-11T00:43:11;-4.30;99.90
9383;DHT22;4731;49.708;10.816;2023-02-11T00:45:39;-4.30;99.90
9383;DHT22;4731;49.708;10.816;2023-02-11T00:48:18;-1.10;99.90
9383;DHT22;4731;49.708;10.816;2023-02-11T00:50:45;-4.20;99.90
9383;DHT22;4731;49.708;10.816;2023-02-11T00:53:12;-4.20;99.90
9383;DHT22;4731;49.708;10.816;2023-02-11T00:55:39;-4.30;99.90
9383;DHT22;4731;49.708;10.816;2023-02-11T00:58:07;-4.20;99.90
9383;DHT22;4731;49.708;10.816;2023-02-11T01:00:33;-4.10;99.90
9383;DHT22;4731;49.708;10.816;2023-02-11T01:03:02;-4.10;99.90
9383;DHT22;4731;49.708;10.816;2023-02-11T01:05:29;-4.10;99.90
9383;DHT22;4731;49.708;10.816;2023-02-11T01:07:57;-4.10;99.90
9383;DHT22;4731;49.708;10.816;2023-02-11T01:10:24;-2.20;99.90
9383;DHT22;4731;49.708;10.816;2023-02-11T01:12:51;-3.90;99.90
9383;DHT22;4731;49.708;10.816;2023-02-11T01:15:18;-2.80;99.90
9383;DHT22;4731;49.708;10.816;2023-02-11T01:17:45;-3.70;99.90
9383;DHT22;4731;49.708;10.816;2023-02-11T01:20:17;-3.60;99.90
9383;DHT22;4731;49.708;10.816;2023-02-11T01:22:44;-3.60;99.90
9383;DHT22;4731;49.708;10.816;2023-02-11T01:25:12;-1.60;99.90
9383;DHT22;4731;49.708;10.816;2023-02-11T01:27:39;-3.60;99.90
9383;DHT22;4731;49.708;10.816;2023-02-11T01:30:10;-3.50;99.90
9383;DHT22;4731;49.708;10.816;2023-02-11T01:32:39;-3.40;99.90
9383;DHT22;4731;49.708;10.816;2023-02-11T01:35:07;-3.30;99.90
9383;DHT22;4731;49.708;10.816;2023-02-11T01:37:35;-3.30;99.90
9383;DHT22;4731;49.708;10.816;2023-02-11T01:40:04;-3.40;99.90
9383;DHT22;4731;49.708;10.816;2023-02-11T01:42:32;-3.40;99.90
9383;DHT22;4731;49.708;10.816;2023-02-11T01:44:59;-3.40;99.90
9383;DHT22;4731;49.708;10.816;2023-02-11T01:47:28;-3.30;99.90
9383;DHT22;4731;49.708;10.816;2023-02-11T01:49:58;-3.40;99.90
9383;DHT22;4731;49.708;10.816;2023-02-11T01:52:28;-3.40;99.90
9383;DHT22;4731;49.708;10.816;2023-02-11T01:55:00;-2.90;99.90
9383;DHT22;4731;49.708;10.816;2023-02-11T01:57:50;-3.40;99.90
9383;DHT22;4731;49.708;10.816;2023-02-11T02:00:20;-3.40;99.90
9383;DHT22;4731;49.708;10.816;2023-02-11T02:02:51;-3.40;99.90
9383;DHT22;4731;49.708;10.816;2023-02-11T02:05:28;-3.40;99.90
9383;DHT22;4731;49.708;10.816;2023-02-11T02:08:03;-3.40;99.90
9383;DHT22;4731;49.708;10.816;2023-02-11T02:10:36;-3.40;99.90
9383;DHT22;4731;49.708;10.816;2023-02-11T02:13:05;-3.30;99.90
9383;DHT22;4731;49.708;10.816;2023-02-11T02:15:33;-3.30;99.90
9383;DHT22;4731;49.708;10.816;2023-02-11T02:18:14;-3.30;99.90
9383;DHT22;4731;49.708;10.816;2023-02-11T02:24:15;-3.30;99.90
9383;DHT22;4731;49.708;10.816;2023-02-11T02:27:03;-3.30;99.90
9383;DHT22;4731;49.708;10.816;2023-02-11T02:30:05;-3.20;99.90
9383;DHT22;4731;49.708;10.816;2023-02-11T02:32:44;-3.20;99.90
9383;DHT22;4731;49.708;10.816;2023-02-11T02:35:26;-3.20;99.90
9383;DHT22;4731;49.708;10.816;2023-02-11T02:37:58;-3.30;99.90
9383;DHT22;4731;49.708;10.816;2023-02-11T02:40:31;-3.30;99.90
9383;DHT22;4731;49.708;10.816;2023-02-11T02:43:00;-3.50;99.90
9383;DHT22;4731;49.708;10.816;2023-02-11T02:45:28;-3.50;99.90
9383;DHT22;4731;49.708;10.816;2023-02-11T02:50:33;-3.20;99.90
9383;DHT22;4731;49.708;10.816;2023-02-11T02:53:11;-2.70;99.90
9383;DHT22;4731;49.708;10.816;2023-02-11T02:55:50;-3.10;99.90
9383;DHT22;4731;49.708;10.816;2023-02-11T02:58:35;-3.00;99.90
9383;DHT22;4731;49.708;10.816;2023-02-11T03:01:12;-2.90;99.90
9383;DHT22;4731;49.708;10.816;2023-02-11T03:03:48;-2.90;99.90
9383;DHT22;4731;49.708;10.816;2023-02-11T03:06:26;-2.80;99.90
9383;DHT22;4731;49.708;10.816;2023-02-11T03:09:00;-0.30;99.90
9383;DHT22;4731;49.708;10.816;2023-02-11T03:11:29;-2.50;99.90
9383;DHT22;4731;49.708;10.816;2023-02-11T03:13:56;-2.70;99.90
9383;DHT22;4731;49.708;10.816;2023-02-11T03:16:27;-2.60;99.90
9383;DHT22;4731;49.708;10.816;2023-02-11T03:19:06;-0.90;99.90
9383;DHT22;4731;49.708;10.816;2023-02-11T03:21:37;-2.30;99.90
9383;DHT22;4731;49.708;10.816;2023-02-11T03:24:07;-1.30;99.90
9383;DHT22;4731;49.708;10.816;2023-02-11T03:26:39;-2.40;99.90
9383;DHT22;4731;49.708;10.816;2023-02-11T03:29:12;-2.40;99.90
9383;DHT22;4731;49.708;10.816;2023-02-11T03:31:48;-2.30;99.90
9383;DHT22;4731;49.708;10.816;2023-02-11T03:34:24;-2.10;99.90
9383;DHT22;4731;49.708;10.816;2023-02-11T03:36:58;-1.40;99.90
9383;DHT22;4731;49.708;10.816;2023-02-11T03:39:31;-2.30;99.90
9383;DHT22;4731;49.708;10.816;2023-02-11T03:42:02;-2.20;99.90
9383;DHT22;4731;49.708;10.816;2023-02-11T03:44:35;-2.20;99.90
9383;DHT22;4731;49.708;10.816;2023-02-11T03:47:06;-2.40;99.90
9383;DHT22;4731;49.708;10.816;2023-02-11T03:49:39;-2.10;99.90
9383;DHT22;4731;49.708;10.816;2023-02-11T03:52:07;-2.10;99.90
9383;DHT22;4731;49.708;10.816;2023-02-11T03:54:37;-2.10;99.90
9383;DHT22;4731;49.708;10.816;2023-02-11T03:57:07;0.50;99.90
9383;DHT22;4731;49.708;10.816;2023-02-11T03:59:49;0.00;99.90
9383;DHT22;4731;49.708;10.816;2023-02-11T04:02:16;-1.90;99.90
9383;DHT22;4731;49.708;10.816;2023-02-11T04:04:46;-1.80;99.90
9383;DHT22;4731;49.708;10.816;2023-02-11T04:07:13;-1.90;99.90
9383;DHT22;4731;49.708;10.816;2023-02-11T04:09:41;-1.50;99.90
9383;DHT22;4731;49.708;10.816;2023-02-11T04:12:08;1.00;99.90
9383;DHT22;4731;49.708;10.816;2023-02-11T04:14:35;-0.20;99.90
9383;DHT22;4731;49.708;10.816;2023-02-11T04:17:02;-1.70;99.90
9383;DHT22;4731;49.708;10.816;2023-02-11T04:19:29;-1.70;99.90
9383;DHT22;4731;49.708;10.816;2023-02-11T04:21:58;-1.70;99.90
9383;DHT22;4731;49.708;10.816;2023-02-11T04:24:25;-1.60;99.90
9383;DHT22;4731;49.708;10.816;2023-02-11T04:26:54;-1.60;99.90
9383;DHT22;4731;49.708;10.816;2023-02-11T04:29:22;-1.70;99.90
9383;DHT22;4731;49.708;10.816;2023-02-11T04:31:49;0.40;99.90
9383;DHT22;4731;49.708;10.816;2023-02-11T04:34:16;-1.50;99.90
9383;DHT22;4731;49.708;10.816;2023-02-11T04:36:43;-0.30;99.90
9383;DHT22;4731;49.708;10.816;2023-02-11T04:39:12;-1.30;99.90
9383;DHT22;4731;49.708;10.816;2023-02-11T04:41:39;-1.30;99.90
9383;DHT22;4731;49.708;10.816;2023-02-11T04:44:06;1.70;99.90
9383;DHT22;4731;49.708;10.816;2023-02-11T04:46:33;-1.30;99.90
9383;DHT22;4731;49.708;10.816;2023-02-11T04:49:00;-1.30;99.90
9383;DHT22;4731;49.708;10.816;2023-02-11T04:51:27;0.10;99.90
9383;DHT22;4731;49.708;10.816;2023-02-11T04:53:54;-0.30;99.90
9383;DHT22;4731;49.708;10.816;2023-02-11T04:58:50;-0.90;99.90
9383;DHT22;4731;49.708;10.816;2023-02-11T05:01:17;-0.80;99.90
9383;DHT22;4731;49.708;10.816;2023-02-11T05:03:44;-0.90;99.90
9383;DHT22;4731;49.708;10.816;2023-02-11T05:06:11;-0.80;99.90
9383;DHT22;4731;49.708;10.816;2023-02-11T05:08:39;-0.80;99.90
9383;DHT22;4731;49.708;10.816;2023-02-11T05:11:06;-0.10;99.90
9383;DHT22;4731;49.708;10.816;2023-02-11T05:13:35;-0.60;99.90
9383;DHT22;4731;49.708;10.816;2023-02-11T05:16:02;-0.70;99.90
9383;DHT22;4731;49.708;10.816;2023-02-11T05:18:29;-0.80;99.90
9383;DHT22;4731;49.708;10.816;2023-02-11T05:21:05;-0.80;99.90
9383;DHT22;4731;49.708;10.816;2023-02-11T05:23:32;-0.50;99.90
9383;DHT22;4731;49.708;10.816;2023-02-11T05:25:59;-0.40;99.90
9383;DHT22;4731;49.708;10.816;2023-02-11T05:28:27;-0.30;99.90
9383;DHT22;4731;49.708;10.816;2023-02-11T05:30:55;-0.20;99.90
9383;DHT22;4731;49.708;10.816;2023-02-11T05:33:23;-0.20;99.90
9383;DHT22;4731;49.708;10.816;2023-02-11T05:35:50;-0.10;99.90
9383;DHT22;4731;49.708;10.816;2023-02-11T05:38:17;-0.20;99.90
9383;DHT22;4731;49.708;10.816;2023-02-11T05:40:45;-0.20;99.90
9383;DHT22;4731;49.708;10.816;2023-02-11T05:43:12;-0.10;99.90
9383;DHT22;4731;49.708;10.816;2023-02-11T05:45:39;-0.40;99.90
9383;DHT22;4731;49.708;10.816;2023-02-11T05:48:08;0.70;99.90
9383;DHT22;4731;49.708;10.816;2023-02-11T05:50:35;2.90;99.90
9383;DHT22;4731;49.708;10.816;2023-02-11T05:53:02;-0.80;99.90
9383;DHT22;4731;49.708;10.816;2023-02-11T05:55:30;-0.90;99.90
9383;DHT22;4731;49.708;10.816;2023-02-11T05:57:57;-0.90;99.90
9383;DHT22;4731;49.708;10.816;2023-02-11T06:00:25;-1.00;99.90
9383;DHT22;4731;49.708;10.816;2023-02-11T06:02:54;-1.00;99.90
9383;DHT22;4731;49.708;10.816;2023-02-11T06:05:23;-1.00;99.90
9383;DHT22;4731;49.708;10.816;2023-02-11T06:07:50;-1.00;99.90
9383;DHT22;4731;49.708;10.816;2023-02-11T06:10:17;0.30;99.90
9383;DHT22;4731;49.708;10.816;2023-02-11T06:12:44;-1.10;99.90
9383;DHT22;4731;49.708;10.816;2023-02-11T06:15:11;-1.20;99.90
9383;DHT22;4731;49.708;10.816;2023-02-11T06:17:39;-1.30;99.90
9383;DHT22;4731;49.708;10.816;2023-02-11T06:20:08;-1.30;99.90
9383;DHT22;4731;49.708;10.816;2023-02-11T06:22:37;-1.30;99.90
9383;DHT22;4731;49.708;10.816;2023-02-11T06:25:04;-1.40;99.90
9383;DHT22;4731;49.708;10.816;2023-02-11T06:27:32;-1.30;99.90
9383;DHT22;4731;49.708;10.816;2023-02-11T06:29:59;-1.30;99.90
9383;DHT22;4731;49.708;10.816;2023-02-11T06:32:26;-1.30;99.90
9383;DHT22;4731;49.708;10.816;2023-02-11T06:34:59;-1.30;99.90
9383;DHT22;4731;49.708;10.816;2023-02-11T06:37:27;-1.20;99.90
9383;DHT22;4731;49.708;10.816;2023-02-11T06:39:56;-1.30;99.90
9383;DHT22;4731;49.708;10.816;2023-02-11T06:42:23;-1.30;99.90
9383;DHT22;4731;49.708;10.816;2023-02-11T06:44:50;-1.20;99.90
9383;DHT22;4731;49.708;10.816;2023-02-11T06:47:17;-1.30;99.90
9383;DHT22;4731;49.708;10.816;2023-02-11T06:49:50;-0.30;99.90
9383;DHT22;4731;49.708;10.816;2023-02-11T06:52:17;1.10;99.90
9383;DHT22;4731;49.708;10.816;2023-02-11T06:54:46;-1.20;99.90
9383;DHT22;4731;49.708;10.816;2023-02-11T06:57:14;-1.20;99.90
9383;DHT22;4731;49.708;10.816;2023-02-11T06:59:43;-1.10;99.90
9383;DHT22;4731;49.708;10.816;2023-02-11T07:02:10;-1.00;99.90
9383;DHT22;4731;49.708;10.816;2023-02-11T07:04:37;-0.90;99.90
9383;DHT22;4731;49.708;10.816;2023-02-11T07:07:04;-0.70;99.90
9383;DHT22;4731;49.708;10.816;2023-02-11T07:09:32;-0.30;99.90
9383;DHT22;4731;49.708;10.816;2023-02-11T07:11:59;0.30;99.90
9383;DHT22;4731;49.708;10.816;2023-02-11T07:16:54;0.60;99.90
9383;DHT22;4731;49.708;10.816;2023-02-11T07:19:22;0.40;99.90
9383;DHT22;4731;49.708;10.816;2023-02-11T07:21:49;0.40;99.90
9383;DHT22;4731;49.708;10.816;2023-02-11T07:24:16;0.40;99.90
9383;DHT22;4731;49.708;10.816;2023-02-11T07:26:44;0.60;99.90
9383;DHT22;4731;49.708;10.816;2023-02-11T07:29:11;0.70;99.90
9383;DHT22;4731;49.708;10.816;2023-02-11T07:31:39;0.70;99.90
9383;DHT22;4731;49.708;10.816;2023-02-11T07:34:06;0.80;99.90
9383;DHT22;4731;49.708;10.816;2023-02-11T07:36:33;1.00;99.90
9383;DHT22;4731;49.708;10.816;2023-02-11T07:39:00;1.10;99.90
9383;DHT22;4731;49.708;10.816;2023-02-11T07:41:27;1.30;99.90
9383;DHT22;4731;49.708;10.816;2023-02-11T07:43:55;1.50;99.90
9383;DHT22;4731;49.708;10.816;2023-02-11T07:46:22;4.30;99.90
9383;DHT22;4731;49.708;10.816;2023-02-11T07:48:51;2.00;99.90
9383;DHT22;4731;49.708;10.816;2023-02-11T07:51:20;2.20;99.90
9383;DHT22;4731;49.708;10.816;2023-02-11T07:53:47;2.30;99.90
9383;DHT22;4731;49.708;10.816;2023-02-11T07:56:16;2.40;99.90
9383;DHT22;4731;49.708;10.816;2023-02-11T07:58:43;2.80;99.90
9383;DHT22;4731;49.708;10.816;2023-02-11T08:01:13;2.50;99.90
9383;DHT22;4731;49.708;10.816;2023-02-11T08:03:41;2.40;99.90
9383;DHT22;4731;49.708;10.816;2023-02-11T08:06:11;2.50;99.90
9383;DHT22;4731;49.708;10.816;2023-02-11T08:08:39;2.40;99.90
9383;DHT22;4731;49.708;10.816;2023-02-11T08:11:07;2.50;99.90
9383;DHT22;4731;49.708;10.816;2023-02-11T08:13:34;2.60;99.90
9383;DHT22;4731;49.708;10.816;2023-02-11T08:16:01;2.60;99.90
9383;DHT22;4731;49.708;10.816;2023-02-11T08:20:56;2.90;99.90
9383;DHT22;4731;49.708;10.816;2023-02-11T08:23:24;2.90;99.90
9383;DHT22;4731;49.708;10.816;2023-02-11T08:25:51;2.90;99.90
9383;DHT22;4731;49.708;10.816;2023-02-11T08:28:17;2.80;99.90
9383;DHT22;4731;49.708;10.816;2023-02-11T08:30:44;2.90;99.90
9383;DHT22;4731;49.708;10.816;2023-02-11T08:33:11;2.90;99.90
9383;DHT22;4731;49.708;10.816;2023-02-11T08:35:38;3.10;99.90
9383;DHT22;4731;49.708;10.816;2023-02-11T08:38:06;3.30;99.90
9383;DHT22;4731;49.708;10.816;2023-02-11T08:40:35;3.00;99.90
9383;DHT22;4731;49.708;10.816;2023-02-11T08:43:02;3.10;99.90
9383;DHT22;4731;49.708;10.816;2023-02-11T08:45:28;3.40;99.90
9383;DHT22;4731;49.708;10.816;2023-02-11T08:50:22;3.10;99.90
9383;DHT22;4731;49.708;10.816;2023-02-11T08:52:50;4.00;99.90
9383;DHT22;4731;49.708;10.816;2023-02-11T08:55:17;4.50;99.90
9383;DHT22;4731;49.708;10.816;2023-02-11T08:57:45;4.80;99.90
9383;DHT22;4731;49.708;10.816;2023-02-11T09:02:41;5.40;99.90
9383;DHT22;4731;49.708;10.816;2023-02-11T09:05:08;5.50;99.90
9383;DHT22;4731;49.708;10.816;2023-02-11T09:07:35;5.40;99.90
9383;DHT22;4731;49.708;10.816;2023-02-11T09:10:02;5.10;99.90
9383;DHT22;4731;49.708;10.816;2023-02-11T09:12:28;5.10;99.90
9383;DHT22;4731;49.708;10.816;2023-02-11T09:14:57;5.50;99.90
9383;DHT22;4731;49.708;10.816;2023-02-11T09:17:23;4.60;99.90
9383;DHT22;4731;49.708;10.816;2023-02-11T09:19:50;4.40;99.90
9383;DHT22;4731;49.708;10.816;2023-02-11T09:22:17;4.40;99.90
9383;DHT22;4731;49.708;10.816;2023-02-11T09:24:43;4.20;99.90
9383;DHT22;4731;49.708;10.816;2023-02-11T09:27:10;3.90;99.90
9383;DHT22;4731;49.708;10.816;2023-02-11T09:29:37;3.80;99.90
9383;DHT22;4731;49.708;10.816;2023-02-11T09:34:32;3.70;99.90
9383;DHT22;4731;49.708;10.816;2023-02-11T09:39:26;3.70;99.90
9383;DHT22;4731;49.708;10.816;2023-02-11T09:44:44;3.80;99.90
9383;DHT22;4731;49.708;10.816;2023-02-11T09:47:21;4.00;99.90
9383;DHT22;4731;49.708;10.816;2023-02-11T09:49:50;4.10;99.90
9383;DHT22;4731;49.708;10.816;2023-02-11T09:52:27;4.10;99.90
9383;DHT22;4731;49.708;10.816;2023-02-11T09:54:57;4.10;99.90
9383;DHT22;4731;49.708;10.816;2023-02-11T09:57:27;4.30;99.90
9383;DHT22;4731;49.708;10.816;2023-02-11T09:59:55;4.50;99.90
9383;DHT22;4731;49.708;10.816;2023-02-11T10:02:28;4.60;99.90
9383;DHT22;4731;49.708;10.816;2023-02-11T10:05:16;4.60;99.90
9383;DHT22;4731;49.708;10.816;2023-02-11T10:07:50;4.50;99.90
9383;DHT22;4731;49.708;10.816;2023-02-11T10:10:35;4.40;99.90
9383;DHT22;4731;49.708;10.816;2023-02-11T10:13:23;4.50;99.90
9383;DHT22;4731;49.708;10.816;2023-02-11T10:16:00;4.50;99.90
9383;DHT22;4731;49.708;10.816;2023-02-11T10:18:38;4.40;99.90
9383;DHT22;4731;49.708;10.816;2023-02-11T10:21:14;4.40;99.90
9383;DHT22;4731;49.708;10.816;2023-02-11T10:23:46;4.50;99.90
9383;DHT22;4731;49.708;10.816;2023-02-11T10:26:15;4.40;99.90
9383;DHT22;4731;49.708;10.816;2023-02-11T10:28:44;4.50;99.90
9383;DHT22;4731;49.708;10.816;2023-02-11T10:31:15;4.40;99.90
9383;DHT22;4731;49.708;10.816;2023-02-11T10:33:46;4.30;99.90
9383;DHT22;4731;49.708;10.816;2023-02-11T10:36:17;4.20;99.90
9383;DHT22;4731;49.708;10.816;2023-02-11T10:38:45;4.30;99.90
9383;DHT22;4731;49.708;10.816;2023-02-11T10:41:15;4.30;99.90
9383;DHT22;4731;49.708;10.816;2023-02-11T10:46:16;4.30;99.90
9383;DHT22;4731;49.708;10.816;2023-02-11T10:48:46;4.30;99.90
9383;DHT22;4731;49.708;10.816;2023-02-11T10:51:20;4.30;99.90
9383;DHT22;4731;49.708;10.816;2023-02-11T10:53:48;4.20;99.90
9383;DHT22;4731;49.708;10.816;2023-02-11T10:56:21;4.20;99.90
9383;DHT22;4731;49.708;10.816;2023-02-11T10:58:56;4.30;99.90
9383;DHT22;4731;49.708;10.816;2023-02-11T11:01:37;4.30;99.90
9383;DHT22;4731;49.708;10.816;2023-02-11T11:04:35;4.30;99.90
9383;DHT22;4731;49.708;10.816;2023-02-11T11:07:17;4.40;99.90
9383;DHT22;4731;49.708;10.816;2023-02-11T11:09:48;4.40;99.90
9383;DHT22;4731;49.708;10.816;2023-02-11T11:12:31;6.10;99.90
9383;DHT22;4731;49.708;10.816;2023-02-11T11:15:00;4.60;99.90
9383;DHT22;4731;49.708;10.816;2023-02-11T11:17:27;4.60;99.90
9383;DHT22;4731;49.708;10.816;2023-02-11T11:20:13;4.60;99.90
9383;DHT22;4731;49.708;10.816;2023-02-11T11:22:41;4.60;99.90
9383;DHT22;4731;49.708;10.816;2023-02-11T11:25:21;4.50;99.90
9383;DHT22;4731;49.708;10.816;2023-02-11T11:27:48;4.50;99.90
9383;DHT22;4731;49.708;10.816;2023-02-11T11:30:16;4.60;99.90
9383;DHT22;4731;49.708;10.816;2023-02-11T11:35:23;5.10;99.90
9383;DHT22;4731;49.708;10.816;2023-02-11T11:37:57;4.80;99.90
9383;DHT22;4731;49.708;10.816;2023-02-11T11:40:26;4.90;99.90
9383;DHT22;4731;49.708;10.816;2023-02-11T11:43:05;5.10;99.90
9383;DHT22;4731;49.708;10.816;2023-02-11T11:45:52;5.00;99.90
9383;DHT22;4731;49.708;10.816;2023-02-11T11:48:23;4.90;99.90
9383;DHT22;4731;49.708;10.816;2023-02-11T11:50:54;4.90;99.90
9383;DHT22;4731;49.708;10.816;2023-02-11T11:53:28;5.10;99.90
9383;DHT22;4731;49.708;10.816;2023-02-11T11:56:01;5.10;99.90
9383;DHT22;4731;49.708;10.816;2023-02-11T11:58:30;5.20;99.90
9383;DHT22;4731;49.708;10.816;2023-02-11T12:01:05;5.10;99.90
9383;DHT22;4731;49.708;10.816;2023-02-11T12:04:04;5.10;99.90
9383;DHT22;4731;49.708;10.816;2023-02-11T12:06:50;5.10;99.90
9383;DHT22;4731;49.708;10.816;2023-02-11T12:09:27;5.20;99.90
9383;DHT22;4731;49.708;10.816;2023-02-11T12:12:14;5.40;99.90
9383;DHT22;4731;49.708;10.816;2023-02-11T12:14:48;5.50;99.90
9383;DHT22;4731;49.708;10.816;2023-02-11T12:17:27;5.60;99.90
9383;DHT22;4731;49.708;10.816;2023-02-11T12:20:11;5.80;99.90
9383;DHT22;4731;49.708;10.816;2023-02-11T12:22:50;5.70;99.90
9383;DHT22;4731;49.708;10.816;2023-02-11T12:25:24;5.60;99.90
9383;DHT22;4731;49.708;10.816;2023-02-11T12:28:00;5.50;99.90
9383;DHT22;4731;49.708;10.816;2023-02-11T12:30:53;5.60;99.90
9383;DHT22;4731;49.708;10.816;2023-02-11T12:33:37;5.60;99.90
9383;DHT22;4731;49.708;10.816;2023-02-11T12:36:15;5.50;99.90
9383;DHT22;4731;49.708;10.816;2023-02-11T12:39:04;5.60;99.90
9383;DHT22;4731;49.708;10.816;2023-02-11T12:41:45;5.70;99.90
9383;DHT22;4731;49.708;10.816;2023-02-11T12:44:50;5.80;99.90
9383;DHT22;4731;49.708;10.816;2023-02-11T12:47:29;6.00;99.90
9383;DHT22;4731;49.708;10.816;2023-02-11T12:50:08;5.90;99.90
9383;DHT22;4731;49.708;10.816;2023-02-11T12:55:36;5.80;99.90
9383;DHT22;4731;49.708;10.816;2023-02-11T12:58:04;5.70;99.90
9383;DHT22;4731;49.708;10.816;2023-02-11T13:00:41;5.80;99.90
9383;DHT22;4731;49.708;10.816;2023-02-11T13:03:17;5.70;99.90
9383;DHT22;4731;49.708;10.816;2023-02-11T13:05:47;5.60;99.90
9383;DHT22;4731;49.708;10.816;2023-02-11T13:08:18;5.60;99.90
9383;DHT22;4731;49.708;10.816;2023-02-11T13:10:49;5.70;99.90
9383;DHT22;4731;49.708;10.816;2023-02-11T13:13:18;5.60;99.90
9383;DHT22;4731;49.708;10.816;2023-02-11T13:15:50;5.60;99.90
9383;DHT22;4731;49.708;10.816;2023-02-11T13:18:27;5.70;99.90
9383;DHT22;4731;49.708;10.816;2023-02-11T13:20:59;5.70;99.90
9383;DHT22;4731;49.708;10.816;2023-02-11T13:23:35;5.90;99.90
9383;DHT22;4731;49.708;10.816;2023-02-11T13:26:09;6.10;99.90
9383;DHT22;4731;49.708;10.816;2023-02-11T13:28:45;6.20;99.90
9383;DHT22;4731;49.708;10.816;2023-02-11T13:31:13;6.10;99.90
9383;DHT22;4731;49.708;10.816;2023-02-11T13:33:41;6.00;99.90
9383;DHT22;4731;49.708;10.816;2023-02-11T13:36:23;6.00;99.90
9383;DHT22;4731;49.708;10.816;2023-02-11T13:38:59;6.00;99.90
9383;DHT22;4731;49.708;10.816;2023-02-11T13:41:31;6.00;99.90
9383;DHT22;4731;49.708;10.816;2023-02-11T13:44:25;6.10;99.90
9383;DHT22;4731;49.708;10.816;2023-02-11T13:46:58;6.30;99.90
9383;DHT22;4731;49.708;10.816;2023-02-11T13:49:30;6.20;99.90
9383;DHT22;4731;49.708;10.816;2023-02-11T13:52:00;6.30;99.90
9383;DHT22;4731;49.708;10.816;2023-02-11T13:54:31;6.30;99.90
9383;DHT22;4731;49.708;10.816;2023-02-11T13:57:24;6.40;99.90
9383;DHT22;4731;49.708;10.816;2023-02-11T13:59:54;6.30;99.90
9383;DHT22;4731;49.708;10.816;2023-02-11T14:02:29;6.10;99.90
9383;DHT22;4731;49.708;10.816;2023-02-11T14:05:23;8.00;99.90
9383;DHT22;4731;49.708;10.816;2023-02-11T14:08:22;6.10;99.90
9383;DHT22;4731;49.708;10.816;2023-02-11T14:11:09;6.00;99.90
9383;DHT22;4731;49.708;10.816;2023-02-11T14:14:10;6.10;99.90
9383;DHT22;4731;49.708;10.816;2023-02-11T14:19:46;6.30;99.90
9383;DHT22;4731;49.708;10.816;2023-02-11T14:22:16;6.10;99.90
9383;DHT22;4731;49.708;10.816;2023-02-11T14:24:50;6.00;99.90
9383;DHT22;4731;49.708;10.816;2023-02-11T14:27:26;7.10;99.90
9383;DHT22;4731;49.708;10.816;2023-02-11T14:30:27;5.90;99.90
9383;DHT22;4731;49.708;10.816;2023-02-11T14:33:11;5.80;99.90
9383;DHT22;4731;49.708;10.816;2023-02-11T14:35:46;5.90;99.90
9383;DHT22;4731;49.708;10.816;2023-02-11T14:38:21;5.80;99.90
9383;DHT22;4731;49.708;10.816;2023-02-11T14:40:54;5.80;99.90
9383;DHT22;4731;49.708;10.816;2023-02-11T14:43:25;9.30;99.90
9383;DHT22;4731;49.708;10.816;2023-02-11T14:45:56;5.90;99.90
9383;DHT22;4731;49.708;10.816;2023-02-11T14:48:27;6.00;99.90
9383;DHT22;4731;49.708;10.816;2023-02-11T14:50:59;5.90;99.90
9383;DHT22;4731;49.708;10.816;2023-02-11T14:53:27;5.90;99.90
9383;DHT22;4731;49.708;10.816;2023-02-11T14:55:56;5.90;99.90
9383;DHT22;4731;49.708;10.816;2023-02-11T14:58:24;5.80;99.90
9383;DHT22;4731;49.708;10.816;2023-02-11T15:00:55;5.80;99.90
9383;DHT22;4731;49.708;10.816;2023-02-11T15:03:31;5.80;99.90
9383;DHT22;4731;49.708;10.816;2023-02-11T15:05:59;5.70;99.90
9383;DHT22;4731;49.708;10.816;2023-02-11T15:08:27;5.70;99.90
9383;DHT22;4731;49.708;10.816;2023-02-11T15:10:55;5.70;99.90
9383;DHT22;4731;49.708;10.816;2023-02-11T15:13:24;5.70;99.90
9383;DHT22;4731;49.708;10.816;2023-02-11T15:16:00;5.70;99.90
9383;DHT22;4731;49.708;10.816;2023-02-11T15:18:34;5.70;99.90
9383;DHT22;4731;49.708;10.816;2023-02-11T15:21:02;5.70;99.90
9383;DHT22;4731;49.708;10.816;2023-02-11T15:23:30;5.70;99.90
9383;DHT22;4731;49.708;10.816;2023-02-11T15:25:57;5.60;99.90
9383;DHT22;4731;49.708;10.816;2023-02-11T15:28:29;5.60;99.90
9383;DHT22;4731;49.708;10.816;2023-02-11T15:31:00;5.70;99.90
9383;DHT22;4731;49.708;10.816;2023-02-11T15:33:27;5.60;99.90
9383;DHT22;4731;49.708;10.816;2023-02-11T15:35:57;5.60;99.90
9383;DHT22;4731;49.708;10.816;2023-02-11T15:38:24;5.60;99.90
9383;DHT22;4731;49.708;10.816;2023-02-11T15:40:54;5.70;99.90
9383;DHT22;4731;49.708;10.816;2023-02-11T15:43:21;5.70;99.90
9383;DHT22;4731;49.708;10.816;2023-02-11T15:46:00;5.60;99.90
9383;DHT22;4731;49.708;10.816;2023-02-11T15:48:34;5.60;99.90
9383;DHT22;4731;49.708;10.816;2023-02-11T15:51:06;5.50;99.90
9383;DHT22;4731;49.708;10.816;2023-02-11T15:53:37;5.60;99.90
9383;DHT22;4731;49.708;10.816;2023-02-11T15:56:12;5.50;99.90
9383;DHT22;4731;49.708;10.816;2023-02-11T15:58:43;5.60;99.90
9383;DHT22;4731;49.708;10.816;2023-02-11T16:01:13;5.70;99.90
9383;DHT22;4731;49.708;10.816;2023-02-11T16:03:42;5.80;99.90
9383;DHT22;4731;49.708;10.816;2023-02-11T16:06:18;5.80;99.90
9383;DHT22;4731;49.708;10.816;2023-02-11T16:08:56;5.70;99.90
9383;DHT22;4731;49.708;10.816;2023-02-11T16:11:25;5.80;99.90
9383;DHT22;4731;49.708;10.816;2023-02-11T16:13:54;5.70;99.90
9383;DHT22;4731;49.708;10.816;2023-02-11T16:16:23;5.70;99.90
9383;DHT22;4731;49.708;10.816;2023-02-11T16:18:52;5.70;99.90
9383;DHT22;4731;49.708;10.816;2023-02-11T16:21:26;5.70;99.90
9383;DHT22;4731;49.708;10.816;2023-02-11T16:23:56;5.70;99.90
9383;DHT22;4731;49.708;10.816;2023-02-11T16:26:26;5.70;99.90
9383;DHT22;4731;49.708;10.816;2023-02-11T16:29:03;6.70;99.90
9383;DHT22;4731;49.708;10.816;2023-02-11T16:31:36;5.60;99.90
9383;DHT22;4731;49.708;10.816;2023-02-11T16:34:15;5.60;99.90
9383;DHT22;4731;49.708;10.816;2023-02-11T16:36:42;7.50;99.90
9383;DHT22;4731;49.708;10.816;2023-02-11T16:39:09;5.60;99.90
9383;DHT22;4731;49.708;10.816;2023-02-11T16:41:36;5.60;99.90
9383;DHT22;4731;49.708;10.816;2023-02-11T16:44:03;5.50;99.90
9383;DHT22;4731;49.708;10.816;2023-02-11T16:46:30;5.50;99.90
9383;DHT22;4731;49.708;10.816;2023-02-11T16:49:07;5.50;99.90
9383;DHT22;4731;49.708;10.816;2023-02-11T16:51:38;5.50;99.90
9383;DHT22;4731;49.708;10.816;2023-02-11T16:54:05;6.00;99.90
9383;DHT22;4731;49.708;10.816;2023-02-11T16:56:31;5.40;99.90
9383;DHT22;4731;49.708;10.816;2023-02-11T16:58:58;5.40;99.90